Aspen-Pitkin Co/Sardy Field
KASE : now visible

Airfield :











YOU CAN JOIN US ON...

 
LOGIN :

Register | Disclaimer

   EN    FR    IT 

 









Legend :    VFR   Marginal VFR   IFR   Intensive IFR   Very Intensive IFR
Visi :
Ceiling :
>= 8 km
>= 3000ft
5 to 8 km
1000 to 3000 ft
1500m to 5 km
500 to 1000 ft
800 to 1500m
200 to 500 ft
< 800m
< 200 ft
Symbols :   Thunderstorms  Fog  Heavy snow  Heavy precipitations  Wind > 20 kt






- Airport Elevation : 7820 ft


KASE - Aspen-Pitkin Co/Sardy Field

CURRENT METAR :
  • 160736Z AUTO 35006KT 2SM -SN BR BKN008 OVC014 M02/M03 A2995 RMK AO2 P0000 T10221033

EXPIRED METARs :
  • 160709Z AUTO 36008KT 1 1/4SM -SN BR OVC013 M02/M04 A2994 RMK AO2 P0000 T10221039
  • 160653Z AUTO 01008KT 1 1/2SM -SN BR BKN009 OVC015 M02/M03 A2994 RMK AO2 SLP093 P0001 T10221033 401001022
  • 160645Z AUTO 01008KT 1 3/4SM -SN BR OVC009 M02/M03 A2993 RMK AO2 P0000 T10221033
  • 160553Z AUTO 01007KT 5SM -SN BR BKN007 OVC010 M02/M03 A2993 RMK AO2 CIG 004V008 SLP085 P0000 60010 T10171028 10006 21017 51007
  • 160527Z AUTO 01006KT 7SM -SN FEW005 BKN011 OVC033 M01/M03 A2992 RMK AO2 CIG 008V016 P0000 T10111028
  • 160518Z AUTO 36006KT 3SM -SN BR BKN008 BKN011 OVC033 M01/M03 A2992 RMK AO2 CIG 004V009 P0000 T10111028
  • 160509Z AUTO 02006KT 1 3/4SM -SN BR OVC008 M01/M03 A2991 RMK AO2 CIG 004V013 P0000 T10111028
  • 160458Z AUTO 36006KT 2 1/2SM -SN BR SCT007 OVC010 M01/M02 A2991 RMK AO2 P0000 T10111022
  • 160440Z AUTO 35006KT 3SM -SN BR FEW004 BKN010 OVC014 M01/M02 A2991 RMK AO2 P0004 T10111022

TAF KASE
Valid from the 16 at 06:00 until the 17 at 06:00 UTC


160541Z 1606/1706 36006KT 4SM -SN BR BKN010 OVC025
TEMPO 1606/1610 1SM -SN BR OVC008
FM161000 VRB03KT P6SM VCSH SCT020 BKN035
FM161800 34012G18KT P6SM VCSH SCT040 BKN050
FM170200 20005KT P6SM SCT028 BKN050
KZDV FIR / North America



MET'MAP, your aeronautical weather chart ! - Copyright ORBIFLY December 2007 - Disclaimer

ORBIFLY MET'MAP TEAM :

Programming & Development : Alexandra Zaïnal
Concept & original design : Baudouin d'Aumeries
Assistance for programming : Marc-Olivier Méhu
Technical & hardware support : Manuel Goepfert

Contact : metmap@orbifly.com




SOURCES & CREDITS :

   NOAA       Earth
Advisory